Time;durP1;ratioP1;P1;durP2;ratioP2;P2;SDS_P1;SDS_P2;PMS_P1;PMS_P2;Temp;Humidity;BMP_temperature;BMP_pressure;BME280_temperature;BME280_humidity;BME280_pressure;Samples;Min_cycle;Max_cycle;Signal;HPM_P1;HPM_P2
2022/05/07 00:02:16;;;;;;;5.60;3.35;;;;;;;21.42;38.55;101501.21;1703588;84;21019;-77
2022/05/07 00:04:43;;;;;;;4.65;3.20;;;;;;;21.43;38.54;101503.42;1709797;83;21489;-77
2022/05/07 00:07:09;;;;;;;5.42;3.45;;;;;;;21.42;38.54;101501.21;1711056;83;21116;-77
2022/05/07 00:09:36;;;;;;;5.37;3.15;;;;;;;21.42;38.52;101501.21;1711091;83;21719;-77
2022/05/07 00:12:04;;;;;;;6.15;3.08;;;;;;;21.41;38.54;101500.39;1708797;83;21125;-77
2022/05/07 00:14:30;;;;;;;6.80;3.35;;;;;;;21.41;38.53;101504.54;1694910;83;21579;-77
2022/05/07 00:19:41;;;;;;;4.75;3.12;;;;;;;21.41;38.52;101493.47;1694612;83;21476;-77
2022/05/07 00:22:07;;;;;;;4.80;3.20;;;;;;;21.40;38.53;101494.59;1694739;83;21066;-78
2022/05/07 00:24:34;;;;;;;4.60;3.27;;;;;;;21.40;38.52;101493.20;1694655;84;21094;-77
2022/05/07 00:27:01;;;;;;;5.62;3.30;;;;;;;21.40;38.52;101492.38;1687202;83;21035;-78
2022/05/07 00:29:27;;;;;;;6.17;3.00;;;;;;;21.40;38.54;101489.61;1687678;83;21154;-78
2022/05/07 00:31:54;;;;;;;5.03;3.52;;;;;;;21.40;38.49;101496.53;1687881;84;21091;-77
2022/05/07 00:34:26;;;;;;;6.62;3.20;;;;;;;21.39;38.50;101487.96;1667192;84;20980;-78
2022/05/07 00:36:53;;;;;;;4.45;3.20;;;;;;;21.39;38.49;101488.78;1689085;83;21071;-77
2022/05/07 00:39:19;;;;;;;4.90;3.30;;;;;;;21.39;38.53;101497.09;1687936;83;21099;-77
2022/05/07 00:41:45;;;;;;;4.70;3.20;;;;;;;21.38;38.50;101495.47;1687500;84;21000;-78
2022/05/07 00:44:11;;;;;;;4.35;3.00;;;;;;;21.39;38.53;101498.47;1687625;83;21036;-78
2022/05/07 00:46:37;;;;;;;4.62;3.20;;;;;;;21.38;38.50;101496.03;1687663;83;21047;-77
2022/05/07 00:49:03;;;;;;;5.15;3.45;;;;;;;21.38;38.49;101501.56;1687499;84;21519;-78
2022/05/07 00:51:36;;;;;;;4.95;3.40;;;;;;;21.38;38.48;101491.32;1688072;83;21087;-77
2022/05/07 00:54:09;;;;;;;6.47;3.25;;;;;;;21.38;38.50;101495.47;1687688;83;21524;-78
2022/05/07 00:56:38;;;;;;;5.72;3.40;;;;;;;21.38;38.50;101497.41;1687441;85;21025;-77
2022/05/07 00:59:05;;;;;;;5.35;3.40;;;;;;;21.38;38.48;101497.41;1687782;83;21593;-78
2022/05/07 01:01:31;;;;;;;5.47;3.02;;;;;;;21.37;38.48;101494.38;1687807;83;21079;-78
2022/05/07 01:03:58;;;;;;;6.10;3.37;;;;;;;21.37;38.48;101497.16;1687564;85;21067;-78
2022/05/07 01:06:24;;;;;;;6.53;3.25;;;;;;;21.37;38.49;101495.77;1687389;83;21147;-77
2022/05/07 01:08:56;;;;;;;4.95;3.08;;;;;;;21.36;38.49;101499.09;1687548;83;21102;-78
2022/05/07 01:11:22;;;;;;;5.85;3.30;;;;;;;21.37;38.48;101495.77;1687666;83;21495;-77
2022/05/07 01:13:49;;;;;;;4.28;3.00;;;;;;;21.36;38.48;101495.50;1687950;85;21098;-78
2022/05/07 01:16:15;;;;;;;5.83;4.08;;;;;;;21.36;38.49;101494.94;1687686;83;21082;-78
2022/05/07 01:18:41;;;;;;;5.20;3.37;;;;;;;21.36;38.48;101488.58;1687414;83;21081;-78
2022/05/07 01:21:13;;;;;;;5.35;3.80;;;;;;;21.37;38.49;101488.84;1687640;84;21123;-78
2022/05/07 01:23:40;;;;;;;6.92;4.10;;;;;;;21.37;38.50;101486.08;1689975;84;21142;-77
2022/05/07 01:26:07;;;;;;;8.48;4.10;;;;;;;21.35;38.48;101480.84;1686290;84;21080;-78
2022/05/07 01:28:33;;;;;;;6.12;3.47;;;;;;;21.36;38.44;101488.58;1684987;83;21011;-78
2022/05/07 01:31:00;;;;;;;5.83;4.20;;;;;;;21.35;38.44;101481.40;1685073;83;21327;-77
2022/05/07 01:33:26;;;;;;;6.53;3.40;;;;;;;21.35;38.48;101481.40;1686160;83;21060;-78
2022/05/07 01:35:52;;;;;;;4.87;3.33;;;;;;;21.34;38.47;101480.58;1687538;85;21457;-77
2022/05/07 01:38:18;;;;;;;4.60;3.58;;;;;;;21.34;38.50;101480.58;1687495;83;20952;-78
2022/05/07 01:40:44;;;;;;;5.42;3.92;;;;;;;21.34;38.49;101488.09;1687363;85;21130;-78
2022/05/07 01:43:11;;;;;;;4.72;3.30;;;;;;;21.34;38.50;101481.16;1687583;83;21557;-77
2022/05/07 01:45:37;;;;;;;7.15;3.80;;;;;;;21.34;38.54;101490.27;1687392;83;21055;-78
2022/05/07 01:48:10;;;;;;;4.33;3.58;;;;;;;21.33;38.52;101487.26;1687462;84;21514;-78
2022/05/07 01:50:41;;;;;;;4.70;3.85;;;;;;;21.34;38.52;101483.94;1687572;84;21067;-78
2022/05/07 01:53:08;;;;;;;6.22;4.10;;;;;;;21.33;38.52;101484.49;1687441;85;21483;-78
2022/05/07 01:55:34;;;;;;;4.92;3.92;;;;;;;21.35;38.50;101485.55;1687491;83;21145;-78
2022/05/07 01:58:01;;;;;;;5.85;3.98;;;;;;;21.33;38.49;101482.28;1665796;85;21056;-78
2022/05/07 02:00:29;;;;;;;5.35;3.92;;;;;;;21.32;38.50;101480.63;1687526;85;21046;-78
2022/05/07 02:02:55;;;;;;;5.70;3.52;;;;;;;21.31;38.49;101483.96;1687703;83;21040;-78
2022/05/07 02:05:23;;;;;;;5.33;3.95;;;;;;;21.34;38.49;101485.31;1687554;84;21111;-78
2022/05/07 02:07:49;;;;;;;5.17;3.90;;;;;;;21.31;38.51;101486.73;1687347;84;21223;-78
2022/05/07 02:10:15;;;;;;;6.83;4.42;;;;;;;21.31;38.49;101483.96;1687777;85;21523;-79
2022/05/07 02:12:41;;;;;;;8.90;4.50;;;;;;;21.32;38.49;101480.63;1687677;83;21099;-78
2022/05/07 02:15:08;;;;;;;5.17;3.90;;;;;;;21.32;38.46;101482.02;1687832;84;21081;-79
2022/05/07 02:17:35;;;;;;;5.50;4.08;;;;;;;21.31;38.46;101478.42;1665830;85;21036;-78
2022/05/07 02:20:02;;;;;;;4.97;3.87;;;;;;;21.31;38.47;101472.89;1687576;85;20974;-78
2022/05/07 02:22:28;;;;;;;5.08;3.83;;;;;;;21.30;38.47;101464.91;1687595;84;21099;-78
2022/05/07 02:24:55;;;;;;;6.92;4.17;;;;;;;21.31;38.45;101474.83;1687556;85;22206;-78
2022/05/07 02:27:21;;;;;;;6.25;3.77;;;;;;;21.30;38.47;101473.22;1689553;83;21056;-78
2022/05/07 02:29:48;;;;;;;5.95;3.75;;;;;;;21.30;38.47;101474.02;1687622;83;21640;-78
2022/05/07 02:32:14;;;;;;;6.70;4.58;;;;;;;21.29;38.50;101471.02;1687726;83;21318;-78
2022/05/07 02:34:40;;;;;;;6.15;4.20;;;;;;;21.30;38.49;101475.98;1687485;84;20991;-78
2022/05/07 02:37:07;;;;;;;6.78;4.20;;;;;;;21.31;38.49;101472.89;1687313;84;20999;-78
2022/05/07 02:39:33;;;;;;;6.33;4.20;;;;;;;21.30;38.47;101471.83;1687791;83;21087;-78
2022/05/07 02:44:45;;;;;;;6.08;4.28;;;;;;;21.30;38.47;101473.22;1687124;83;21474;-78
2022/05/07 02:47:11;;;;;;;5.80;3.87;;;;;;;21.29;38.44;101472.95;1687167;83;21095;-78
2022/05/07 02:49:37;;;;;;;5.10;4.08;;;;;;;21.29;38.44;101471.56;1687784;84;21059;-77
2022/05/07 02:52:04;;;;;;;6.80;4.25;;;;;;;21.28;38.46;101469.36;1687304;84;21549;-78
2022/05/07 02:54:30;;;;;;;6.85;4.53;;;;;;;21.28;38.46;101474.90;1687689;84;21127;-78
2022/05/07 02:56:56;;;;;;;5.50;4.10;;;;;;;21.27;38.45;101477.95;1687680;84;21773;-78
2022/05/07 02:59:23;;;;;;;6.47;4.50;;;;;;;21.28;38.44;101480.98;1687696;84;21068;-78
2022/05/07 03:01:49;;;;;;;5.25;3.75;;;;;;;21.26;38.45;101475.75;1687804;83;21056;-78
2022/05/07 03:04:15;;;;;;;5.65;4.25;;;;;;;21.28;38.46;101479.61;1687541;84;21111;-78
2022/05/07 03:06:42;;;;;;;4.85;4.03;;;;;;;21.27;38.46;101477.95;1687251;84;21695;-78
2022/05/07 03:09:08;;;;;;;8.18;4.40;;;;;;;21.26;38.46;101481.28;1687810;84;21273;-78
2022/05/07 03:11:34;;;;;;;6.78;4.08;;;;;;;21.26;38.47;101477.14;1687632;84;21118;-78
2022/05/07 03:14:05;;;;;;;6.12;4.28;;;;;;;21.27;38.48;101480.73;1687597;83;21489;-78
2022/05/07 03:16:31;;;;;;;5.50;4.17;;;;;;;21.26;38.47;101481.28;1687781;83;21051;-78
2022/05/07 03:18:58;;;;;;;6.35;4.42;;;;;;;21.26;38.44;101478.52;1687811;83;21622;-78
2022/05/07 03:21:24;;;;;;;6.78;4.08;;;;;;;21.25;38.43;101486.59;1669798;84;21189;-78
2022/05/07 03:23:50;;;;;;;5.90;4.15;;;;;;;21.27;38.45;101493.18;1690300;83;21016;-78
2022/05/07 03:26:17;;;;;;;6.85;4.47;;;;;;;21.25;38.47;101484.37;1687211;84;21059;-78
2022/05/07 03:28:43;;;;;;;5.87;4.42;;;;;;;21.25;38.45;101485.77;1687412;83;21095;-78
2022/05/07 03:31:09;;;;;;;5.22;3.92;;;;;;;21.25;38.43;101484.37;1687501;85;21605;-78
2022/05/07 03:33:36;;;;;;;6.10;3.80;;;;;;;21.25;38.47;101481.05;1687879;83;21310;-78
2022/05/07 03:36:02;;;;;;;5.40;3.87;;;;;;;21.25;38.45;101480.23;1687181;83;21139;-78
2022/05/07 03:38:28;;;;;;;5.90;3.75;;;;;;;21.24;38.44;101486.88;1688000;85;21070;-78
2022/05/07 03:40:55;;;;;;;6.03;4.40;;;;;;;21.24;38.44;101491.03;1687743;85;21054;-78
2022/05/07 03:43:21;;;;;;;6.30;4.35;;;;;;;21.25;38.43;101487.14;1687671;85;21060;-78
2022/05/07 03:45:47;;;;;;;6.45;4.30;;;;;;;21.23;38.42;101487.44;1687597;84;21112;-78
2022/05/07 03:48:14;;;;;;;5.05;3.65;;;;;;;21.24;38.40;101484.11;1687899;83;21439;-78
2022/05/07 03:50:40;;;;;;;5.85;3.95;;;;;;;21.24;38.41;101479.96;1687630;83;21048;-78
2022/05/07 03:55:51;;;;;;;6.15;3.67;;;;;;;21.23;38.42;101484.67;1687546;84;21067;-78
2022/05/07 03:58:18;;;;;;;5.85;4.35;;;;;;;21.24;38.40;101482.73;1687995;84;21807;-78
2022/05/07 04:00:44;;;;;;;6.03;3.60;;;;;;;21.23;38.40;101477.76;1687794;83;21114;-78
2022/05/07 04:03:12;;;;;;;6.20;3.98;;;;;;;21.24;38.39;101475.25;1665829;85;21119;-78
2022/05/07 04:05:38;;;;;;;5.20;3.90;;;;;;;21.24;38.40;101482.73;1687666;83;21059;-78
2022/05/07 04:08:07;;;;;;;4.78;3.37;;;;;;;21.23;38.34;101480.52;1687723;84;21099;-78
2022/05/07 04:10:33;;;;;;;4.60;3.58;;;;;;;21.24;38.35;101486.88;1687827;85;22059;-78
2022/05/07 04:12:59;;;;;;;5.75;4.12;;;;;;;21.23;38.33;101484.67;1687822;84;21039;-78
2022/05/07 04:15:28;;;;;;;4.53;3.40;;;;;;;21.23;38.29;101483.84;1696947;83;21552;-78
2022/05/07 04:17:54;;;;;;;6.42;4.30;;;;;;;21.22;38.27;101489.95;1690431;84;21049;-78
2022/05/07 04:20:21;;;;;;;7.45;3.85;;;;;;;21.23;38.26;101490.77;1686551;85;21076;-78
2022/05/07 04:22:47;;;;;;;5.50;3.47;;;;;;;21.23;38.25;101495.75;1686536;83;21120;-78
2022/05/07 04:25:13;;;;;;;4.97;3.52;;;;;;;21.25;38.25;101495.45;1685985;85;21463;-78
2022/05/07 04:27:40;;;;;;;6.85;3.90;;;;;;;21.23;38.20;101495.75;1709731;83;21063;-78
2022/05/07 04:30:07;;;;;;;4.85;3.58;;;;;;;21.23;38.19;101499.89;1719488;83;21116;-78
2022/05/07 04:32:34;;;;;;;5.25;3.60;;;;;;;21.23;38.17;101504.61;1719238;83;21107;-78
2022/05/07 04:35:00;;;;;;;5.20;3.70;;;;;;;21.23;38.19;101502.66;1719477;83;21101;-78
2022/05/07 04:37:26;;;;;;;5.50;3.67;;;;;;;21.24;38.16;101509.02;1719524;83;22145;-78
2022/05/07 04:39:52;;;;;;;6.28;3.98;;;;;;;21.23;38.13;101512.91;1719237;83;21048;-78
2022/05/07 04:42:18;;;;;;;5.03;3.55;;;;;;;21.24;38.14;101516.77;1719506;83;21085;-78
2022/05/07 04:44:44;;;;;;;5.87;3.58;;;;;;;21.25;38.14;101520.36;1719443;83;21129;-78
2022/05/07 04:47:11;;;;;;;5.00;3.98;;;;;;;21.24;38.13;101515.94;1719142;83;21482;-78
2022/05/07 04:49:37;;;;;;;6.37;3.60;;;;;;;21.24;38.12;101518.70;1719595;83;21095;-78
2022/05/07 04:52:05;;;;;;;5.15;3.62;;;;;;;21.24;38.12;101522.30;1719627;83;21045;-78
2022/05/07 04:54:32;;;;;;;5.45;3.83;;;;;;;21.24;38.10;101522.86;1719357;83;21044;-78
2022/05/07 04:56:58;;;;;;;6.12;3.72;;;;;;;21.24;38.09;101526.45;1719302;83;21081;-78
2022/05/07 04:59:24;;;;;;;5.10;3.58;;;;;;;21.25;38.12;101525.33;1719547;83;21602;-78
2022/05/07 05:01:50;;;;;;;5.12;3.98;;;;;;;21.24;38.10;101524.24;1719314;83;21079;-78
2022/05/07 05:04:17;;;;;;;8.95;3.85;;;;;;;21.24;38.11;101525.06;1719389;82;21053;-78
2022/05/07 05:06:43;;;;;;;5.67;4.03;;;;;;;21.24;38.07;101522.30;1719051;83;21084;-78
2022/05/07 05:09:10;;;;;;;6.62;3.75;;;;;;;21.24;38.03;101524.24;1719292;83;21096;-78
2022/05/07 05:11:37;;;;;;;5.17;3.42;;;;;;;21.24;38.04;101526.45;1719559;83;21282;-78
2022/05/07 05:16:35;;;;;;;4.45;3.25;;;;;;;21.25;38.01;101525.89;1703104;83;21606;-78
2022/05/07 05:19:01;;;;;;;4.37;3.55;;;;;;;21.25;38.02;101538.34;1719278;83;21068;-78
2022/05/07 05:21:27;;;;;;;5.87;3.37;;;;;;;21.25;38.02;101533.64;1719641;83;21080;-78
2022/05/07 05:23:53;;;;;;;4.75;3.58;;;;;;;21.25;38.00;101535.58;1719233;83;21808;-78
2022/05/07 05:26:20;;;;;;;5.92;3.62;;;;;;;21.25;38.00;101541.12;1719251;83;21599;-78
2022/05/07 05:28:47;;;;;;;5.15;3.90;;;;;;;21.24;38.00;101541.67;1688380;82;21516;-78
2022/05/07 05:31:14;;;;;;;4.87;3.27;;;;;;;21.24;37.99;101544.44;1686222;85;21049;-78
2022/05/07 05:33:40;;;;;;;5.50;3.67;;;;;;;21.24;37.98;101543.61;1686484;85;21606;-78
2022/05/07 05:36:07;;;;;;;5.70;3.42;;;;;;;21.25;37.95;101542.50;1686278;85;21846;-78
2022/05/07 05:38:33;;;;;;;5.03;3.12;;;;;;;21.24;37.95;101547.77;1686064;83;21120;-78
2022/05/07 05:40:59;;;;;;;4.80;3.75;;;;;;;21.25;37.95;101548.03;1686488;85;21057;-78
2022/05/07 05:43:26;;;;;;;5.10;3.77;;;;;;;21.24;37.94;101551.36;1672583;85;21045;-78
2022/05/07 05:45:52;;;;;;;3.83;3.15;;;;;;;21.23;37.94;101556.63;1686144;83;21112;-78
2022/05/07 05:48:18;;;;;;;5.78;3.80;;;;;;;21.25;37.95;101560.48;1686369;83;21226;-78
2022/05/07 05:50:45;;;;;;;4.62;3.72;;;;;;;21.25;37.92;101560.48;1686180;85;21060;-78
2022/05/07 05:53:11;;;;;;;4.50;3.30;;;;;;;21.24;37.92;101559.66;1686397;85;21338;-78
2022/05/07 05:55:37;;;;;;;5.17;3.65;;;;;;;21.24;37.92;101558.28;1686159;85;21041;-78
2022/05/07 05:58:03;;;;;;;3.80;3.20;;;;;;;21.25;37.93;101562.70;1686626;85;21132;-78
2022/05/07 06:00:30;;;;;;;6.22;3.80;;;;;;;21.26;37.92;101561.55;1686470;85;21089;-78
2022/05/07 06:02:56;;;;;;;5.67;3.60;;;;;;;21.26;37.91;101558.78;1686524;83;21053;-78
2022/05/07 06:05:22;;;;;;;5.75;3.52;;;;;;;21.26;37.93;101557.98;1686376;85;21022;-78
2022/05/07 06:07:48;;;;;;;7.15;3.92;;;;;;;21.27;37.93;101572.06;1686117;85;21128;-78
2022/05/07 06:10:15;;;;;;;6.55;3.65;;;;;;;21.28;37.90;101570.94;1686621;85;21069;-78
2022/05/07 06:12:41;;;;;;;4.20;3.17;;;;;;;21.27;37.87;101564.58;1686540;85;21134;-78
2022/05/07 06:15:10;;;;;;;4.33;3.40;;;;;;;21.27;37.86;101563.20;1686207;85;21105;-78
2022/05/07 06:17:42;;;;;;;5.72;3.42;;;;;;;21.28;37.88;101567.61;1690546;83;21633;-78
2022/05/07 06:20:09;;;;;;;5.03;3.45;;;;;;;21.29;37.86;101569.83;1702185;83;21042;-78
2022/05/07 06:22:36;;;;;;;5.25;3.72;;;;;;;21.29;37.85;101574.80;1704066;84;21092;-78
2022/05/07 06:27:47;;;;;;;4.90;3.52;;;;;;;21.30;37.85;101574.24;1706913;82;21040;-78
2022/05/07 06:30:13;;;;;;;4.58;3.55;;;;;;;21.29;37.84;101567.88;1639017;85;21042;-78
2022/05/07 06:32:43;;;;;;;6.53;3.40;;;;;;;21.29;37.84;101568.44;1675364;85;21472;-78
2022/05/07 06:35:10;;;;;;;4.90;3.35;;;;;;;21.31;37.84;101572.53;1664165;85;21149;-78
2022/05/07 06:37:38;;;;;;;5.47;3.40;;;;;;;21.30;37.85;101570.09;1663015;86;21174;-78
2022/05/07 06:40:06;;;;;;;5.67;3.83;;;;;;;21.32;37.84;101566.44;1663123;86;21125;-78
2022/05/07 06:42:34;;;;;;;5.20;3.47;;;;;;;21.32;37.84;101563.67;1662943;86;21062;-78
2022/05/07 06:45:02;;;;;;;5.70;3.77;;;;;;;21.32;37.84;101563.67;1663178;86;21129;-78
2022/05/07 06:47:29;;;;;;;5.28;3.72;;;;;;;21.32;37.87;101567.27;1663095;86;21117;-78
2022/05/07 06:49:55;;;;;;;5.95;3.30;;;;;;;21.33;37.84;101569.47;1663140;86;21512;-79
2022/05/07 06:52:21;;;;;;;5.75;3.70;;;;;;;21.32;37.84;101568.65;1663262;86;21113;-78
2022/05/07 06:54:47;;;;;;;5.22;3.40;;;;;;;21.33;37.83;101567.53;1663203;86;21066;-78
2022/05/07 06:57:14;;;;;;;4.90;3.72;;;;;;;21.34;37.84;101573.89;1641456;86;21070;-78
2022/05/07 06:59:40;;;;;;;4.78;3.90;;;;;;;21.35;37.84;101567.20;1663146;86;21077;-78
2022/05/07 07:02:06;;;;;;;5.22;3.50;;;;;;;21.35;37.85;101570.80;1675408;85;21282;-78
2022/05/07 07:04:33;;;;;;;5.28;3.58;;;;;;;21.35;37.83;101569.97;1675219;85;21053;-78
2022/05/07 07:06:59;;;;;;;5.75;3.60;;;;;;;21.35;37.88;101569.41;1664982;85;21675;-79
2022/05/07 07:09:25;;;;;;;4.40;3.35;;;;;;;21.37;37.89;101569.13;1663213;86;21042;-78
2022/05/07 07:11:52;;;;;;;5.25;3.22;;;;;;;21.36;37.91;101569.68;1663216;86;21113;-78
2022/05/07 07:14:18;;;;;;;4.28;3.10;;;;;;;21.37;37.92;101565.80;1663165;86;21096;-78
2022/05/07 07:16:44;;;;;;;5.65;3.75;;;;;;;21.38;37.92;101566.06;1662792;86;21169;-78
2022/05/07 07:19:10;;;;;;;5.22;3.15;;;;;;;21.38;37.89;101563.30;1662984;85;21041;-78
2022/05/07 07:21:36;;;;;;;5.65;3.50;;;;;;;21.39;37.88;101559.94;1662987;85;21031;-78
2022/05/07 07:24:03;;;;;;;5.17;3.72;;;;;;;21.40;37.91;101558.81;1663134;86;21030;-78
2022/05/07 07:26:29;;;;;;;3.87;3.00;;;;;;;21.40;37.91;101554.10;1662503;86;21518;-78
2022/05/07 07:28:56;;;;;;;5.70;3.27;;;;;;;21.40;37.90;101554.10;1664236;86;21069;-78
2022/05/07 07:31:22;;;;;;;4.20;3.35;;;;;;;21.40;37.92;101561.58;1665211;86;21114;-78
2022/05/07 07:33:48;;;;;;;4.37;3.50;;;;;;;21.42;37.91;101560.73;1664768;85;21035;-78
2022/05/07 07:36:14;;;;;;;5.30;3.30;;;;;;;21.43;37.89;101565.70;1664808;85;21109;-78
2022/05/07 07:38:41;;;;;;;4.92;3.40;;;;;;;21.43;37.89;101554.63;1665141;85;21229;-78
2022/05/07 07:41:07;;;;;;;4.28;3.22;;;;;;;21.42;37.90;101552.42;1664815;86;21067;-78
2022/05/07 07:43:34;;;;;;;5.58;3.15;;;;;;;21.43;37.90;101558.20;1664877;86;21102;-78
2022/05/07 07:48:46;;;;;;;5.15;3.40;;;;;;;21.43;37.90;101567.88;1664951;86;21021;-78
2022/05/07 07:51:12;;;;;;;4.70;3.12;;;;;;;21.43;37.86;101572.86;1665206;86;21079;-78
2022/05/07 07:53:39;;;;;;;5.12;3.20;;;;;;;21.43;37.86;101570.09;1664905;85;21082;-78
2022/05/07 07:56:12;;;;;;;5.37;3.52;;;;;;;21.44;37.86;101570.92;1664482;86;21066;-78
2022/05/07 07:58:38;;;;;;;4.45;3.47;;;;;;;21.44;37.85;101564.00;1664928;85;21070;-78
2022/05/07 08:01:04;;;;;;;4.25;3.15;;;;;;;21.45;37.83;101577.28;1665306;86;21168;-78
2022/05/07 08:03:31;;;;;;;4.12;3.33;;;;;;;21.46;37.85;101585.85;1643505;86;21169;-78
2022/05/07 08:05:57;;;;;;;6.30;3.42;;;;;;;21.45;37.84;101578.11;1664726;85;21078;-78
2022/05/07 08:13:53;;;;;;;4.83;3.30;;;;;;;21.45;37.83;101571.19;1665024;85;21089;-78
2022/05/07 08:16:20;;;;;;;5.40;3.42;;;;;;;21.45;37.82;101571.19;1664411;85;21132;-79
2022/05/07 08:18:46;;;;;;;5.75;3.40;;;;;;;21.45;37.82;101575.34;1664910;86;21627;-78
2022/05/07 08:21:13;;;;;;;4.75;3.72;;;;;;;21.45;37.82;101571.19;1665159;85;21355;-78
2022/05/07 08:23:40;;;;;;;5.60;3.35;;;;;;;21.46;37.81;101575.60;1664192;85;21124;-78
2022/05/07 08:26:06;;;;;;;5.60;3.85;;;;;;;21.45;37.76;101576.72;1664151;85;21108;-78
2022/05/07 08:28:34;;;;;;;4.90;3.17;;;;;;;21.46;37.74;101583.08;1664781;86;21138;-78
2022/05/07 08:31:00;;;;;;;4.72;3.12;;;;;;;21.46;37.74;101585.30;1664695;86;21080;-78
2022/05/07 08:33:28;;;;;;;5.10;3.62;;;;;;;21.47;37.75;101586.12;1664818;86;32616;-78
2022/05/07 08:36:01;;;;;;;4.70;3.08;;;;;;;21.46;37.71;101583.91;1664748;86;21046;-78
2022/05/07 08:38:27;;;;;;;4.83;3.00;;;;;;;21.47;37.68;101578.64;1664804;86;21060;-78
2022/05/07 08:40:53;;;;;;;4.80;3.15;;;;;;;21.46;37.68;101574.22;1664410;86;21850;-78
2022/05/07 08:43:20;;;;;;;6.67;3.50;;;;;;;21.46;37.71;101570.06;1664456;86;20894;-78
2022/05/07 08:45:46;;;;;;;5.45;3.45;;;;;;;21.46;37.70;101579.76;1664514;86;21030;-78
2022/05/07 08:48:12;;;;;;;5.03;3.33;;;;;;;21.47;37.68;101574.48;1664768;86;21017;-78
2022/05/07 08:50:39;;;;;;;4.75;3.50;;;;;;;21.48;37.69;101578.05;1664864;86;21551;-78
2022/05/07 08:53:06;;;;;;;6.83;3.65;;;;;;;21.48;37.68;101572.51;1664437;86;21144;-78
2022/05/07 08:55:32;;;;;;;4.22;3.15;;;;;;;21.47;37.67;101573.10;1664460;86;21040;-78
2022/05/07 08:57:58;;;;;;;5.25;3.52;;;;;;;21.48;37.64;101580.26;1664365;86;21297;-78
2022/05/07 09:00:27;;;;;;;5.08;3.10;;;;;;;21.48;37.61;101569.19;1664184;86;21803;-78
2022/05/07 09:03:00;;;;;;;5.55;3.30;;;;;;;21.50;37.63;101582.73;1664542;84;21571;-78
2022/05/07 09:05:37;;;;;;;4.78;3.35;;;;;;;21.49;37.65;101577.75;1664030;86;21755;-78
2022/05/07 09:08:06;;;;;;;4.05;3.10;;;;;;;21.49;37.62;101570.83;1664324;86;21028;-78
2022/05/07 09:10:34;;;;;;;4.08;3.22;;;;;;;21.48;37.60;101567.80;1664244;86;21113;-78
2022/05/07 09:13:15;;;;;;;5.35;3.70;;;;;;;21.47;37.62;101568.95;1664573;86;21100;-78
2022/05/07 09:15:54;;;;;;;6.00;3.25;;;;;;;21.48;37.63;101567.80;1664642;86;21139;-78
2022/05/07 09:18:20;;;;;;;3.90;2.98;;;;;;;21.48;37.61;101578.87;1665105;86;21141;-78
2022/05/07 09:21:24;;;;;;;4.22;3.02;;;;;;;21.47;37.56;101564.80;1664582;86;21567;-78
2022/05/07 09:24:06;;;;;;;3.62;2.98;;;;;;;21.48;37.56;101564.20;1664464;86;21112;-78
2022/05/07 09:26:39;;;;;;;3.72;3.00;;;;;;;21.47;37.55;101559.26;1663636;86;21632;-79
2022/05/07 09:29:10;;;;;;;3.95;2.87;;;;;;;21.47;37.56;101568.95;1663617;86;21614;-79
2022/05/07 09:31:41;;;;;;;4.20;2.85;;;;;;;21.47;37.55;101562.03;1662337;86;21278;-79
2022/05/07 09:37:21;;;;;;;4.55;2.95;;;;;;;21.47;37.53;101555.66;1662202;86;21088;-79
2022/05/07 09:39:49;;;;;;;3.75;2.90;;;;;;;21.46;37.50;101556.22;1662308;86;21096;-79
2022/05/07 09:42:21;;;;;;;3.65;2.85;;;;;;;21.47;37.44;101557.88;1661992;86;21072;-79
2022/05/07 09:44:48;;;;;;;4.28;2.62;;;;;;;21.46;37.47;101556.22;1662090;86;21172;-79
2022/05/07 09:47:15;;;;;;;3.72;3.05;;;;;;;21.46;37.47;101552.63;1662261;86;20982;-79
2022/05/07 09:50:20;;;;;;;4.08;2.80;;;;;;;21.46;37.48;101553.45;1662059;86;21041;-79
2022/05/07 09:52:10;;;;;;;4.60;2.77;;;;;;;21.47;37.46;101544.59;1662731;86;21116;-79
2022/05/07 09:57:33;;;;;;;4.55;3.00;;;;;;;21.47;37.40;101539.88;1662026;86;21131;-78
2022/05/07 10:00:07;;;;;;;3.35;2.72;;;;;;;21.47;37.39;101538.50;1662323;86;21044;-79
2022/05/07 10:03:07;;;;;;;4.30;2.80;;;;;;;21.47;37.35;101538.50;1662090;86;21100;-79
2022/05/07 10:06:12;;;;;;;5.87;3.15;;;;;;;21.47;37.35;101537.11;1662232;86;21140;-78
2022/05/07 10:09:11;;;;;;;3.87;2.58;;;;;;;21.46;37.33;101532.69;1662159;86;21599;-78
2022/05/07 10:11:38;;;;;;;3.67;3.08;;;;;;;21.47;37.33;101527.98;1662384;86;21971;-78
2022/05/07 10:14:04;;;;;;;4.15;2.90;;;;;;;21.45;37.35;101517.20;1662346;86;21049;-78
2022/05/07 10:16:30;;;;;;;4.70;2.75;;;;;;;21.45;37.35;101524.13;1643075;86;21077;-78
2022/05/07 10:18:57;;;;;;;6.17;2.95;;;;;;;21.45;37.37;101521.91;1662696;86;21406;-78
2022/05/07 10:21:23;;;;;;;3.75;2.90;;;;;;;21.45;37.38;101522.73;1662159;86;21140;-78
2022/05/07 10:23:54;;;;;;;4.50;2.87;;;;;;;21.46;37.36;101529.09;1662192;86;22012;-78
2022/05/07 10:26:23;;;;;;;3.22;2.90;;;;;;;21.46;37.36;101525.77;1650060;86;21025;-78
2022/05/07 10:28:49;;;;;;;4.35;2.98;;;;;;;21.45;37.36;101517.20;1641665;86;21558;-79
2022/05/07 10:31:18;;;;;;;5.70;2.98;;;;;;;21.46;37.36;101515.26;1663662;84;21563;-78
2022/05/07 10:33:44;;;;;;;3.65;2.85;;;;;;;21.46;37.34;101507.77;1663552;86;21068;-78
2022/05/07 10:36:11;;;;;;;4.22;3.10;;;;;;;21.45;37.35;101513.05;1663209;86;22209;-78
2022/05/07 10:38:38;;;;;;;6.05;2.90;;;;;;;21.46;37.34;101500.85;1662946;84;21063;-78
2022/05/07 10:41:22;;;;;;;4.60;2.80;;;;;;;21.45;37.33;101500.59;1663099;84;21151;-78
2022/05/07 10:43:59;;;;;;;4.97;2.95;;;;;;;21.47;37.31;101504.45;1663325;84;21135;-78
2022/05/07 10:46:25;;;;;;;3.33;2.62;;;;;;;21.47;37.31;101500.30;1641601;86;21648;-78
2022/05/07 10:49:04;;;;;;;4.28;2.92;;;;;;;21.47;37.32;101501.12;1662536;86;22216;-78
2022/05/07 10:51:39;;;;;;;4.70;2.55;;;;;;;21.47;37.35;101496.97;1662615;86;21102;-78
2022/05/07 10:54:22;;;;;;;4.25;2.75;;;;;;;21.47;37.34;101503.06;1661762;86;21135;-78
2022/05/07 10:56:56;;;;;;;5.08;2.98;;;;;;;21.47;37.35;101496.14;1662475;84;21144;-78
2022/05/07 10:59:24;;;;;;;4.87;2.65;;;;;;;21.47;37.30;101492.81;1664007;86;21614;-79
2022/05/07 11:01:50;;;;;;;4.85;2.98;;;;;;;21.47;37.34;101486.45;1664349;86;21370;-78
2022/05/07 11:04:21;;;;;;;4.30;3.35;;;;;;;21.46;37.40;101493.11;1664636;84;21026;-78
2022/05/07 11:06:49;;;;;;;3.55;2.90;;;;;;;21.46;37.41;101484.24;1664872;86;21036;-79
2022/05/07 11:09:25;;;;;;;4.92;3.33;;;;;;;21.46;37.36;101481.47;1664590;86;21056;-78
2022/05/07 11:11:53;;;;;;;4.78;2.80;;;;;;;21.46;37.36;101477.32;1663462;86;21042;-79
2022/05/07 11:14:35;;;;;;;3.37;2.95;;;;;;;21.47;37.35;101472.61;1664747;86;21642;-78
2022/05/07 11:17:03;;;;;;;6.17;3.08;;;;;;;21.46;37.34;101469.02;1664784;86;21105;-78
2022/05/07 11:19:33;;;;;;;3.65;2.60;;;;;;;21.46;37.35;101470.41;1665129;86;21665;-78
2022/05/07 11:22:04;;;;;;;3.62;3.00;;;;;;;21.47;37.36;101467.08;1664106;85;21168;-78
2022/05/07 11:24:31;;;;;;;3.75;2.77;;;;;;;21.47;37.36;101466.52;1664917;86;21522;-79
2022/05/07 11:27:02;;;;;;;3.58;2.80;;;;;;;21.47;37.35;101467.08;1665178;86;21331;-78
2022/05/07 11:29:28;;;;;;;3.92;2.60;;;;;;;21.46;37.35;101459.33;1621482;86;21092;-74
2022/05/07 11:32:00;;;;;;;4.22;2.98;;;;;;;21.46;37.41;101457.94;1696445;84;21021;-73
2022/05/07 11:34:36;;;;;;;4.45;2.85;;;;;;;21.47;37.41;101457.38;1675347;84;21104;-74
2022/05/07 11:37:27;;;;;;;4.05;2.70;;;;;;;21.47;37.38;101461.53;1694706;84;21104;-73
2022/05/07 11:39:59;;;;;;;4.03;2.72;;;;;;;21.47;37.37;101461.53;1697031;84;21558;-73
2022/05/07 11:42:36;;;;;;;5.60;2.75;;;;;;;21.45;37.40;101456.30;1693831;83;21587;-74
2022/05/07 11:45:29;;;;;;;3.67;2.75;;;;;;;21.46;37.38;101455.73;1684256;84;21057;-73
2022/05/07 11:48:13;;;;;;;4.37;2.67;;;;;;;21.46;37.41;101452.97;1686295;84;21440;-74
2022/05/07 11:50:43;;;;;;;3.83;2.87;;;;;;;21.46;37.41;101448.81;1686653;84;21633;-73
2022/05/07 11:53:17;;;;;;;3.77;2.90;;;;;;;21.45;37.42;101443.84;1685943;84;22191;-75
2022/05/07 11:55:45;;;;;;;4.37;2.70;;;;;;;21.45;37.41;101446.61;1686523;84;21049;-75
2022/05/07 11:58:20;;;;;;;3.90;2.85;;;;;;;21.46;37.44;101443.28;1686273;84;21057;-74